createdAt,value
2014-08-30T00:00:26.650Z,20.04
2014-08-30T00:01:31.340Z,19.9
2014-08-30T00:02:36.325Z,20.18
2014-08-30T00:03:41.016Z,20.11
2014-08-30T00:04:45.690Z,20.17
2014-08-30T00:05:50.378Z,20.15
2014-08-30T00:06:55.068Z,20.34
2014-08-30T00:07:59.743Z,20.24
2014-08-30T00:09:04.431Z,20.02
2014-08-30T00:10:09.122Z,20
2014-08-30T00:11:14.092Z,19.75
2014-08-30T00:12:18.782Z,19.72
2014-08-30T00:13:23.456Z,19.79
2014-08-30T00:14:28.145Z,19.8
2014-08-30T00:15:32.819Z,19.82
2014-08-30T00:16:37.509Z,19.93
2014-08-30T00:17:42.198Z,20.03
2014-08-30T00:18:47.170Z,20.05
2014-08-30T00:19:51.858Z,20.07
2014-08-30T00:20:56.532Z,20.06
2014-08-30T00:22:01.520Z,20.07
2014-08-30T00:23:06.208Z,20
2014-08-30T00:24:10.883Z,20.1
2014-08-30T00:25:14.885Z,20.16
2014-08-30T00:26:19.575Z,20.14
2014-08-30T00:27:24.264Z,20.1
2014-08-30T00:28:28.938Z,20
2014-08-30T00:29:33.627Z,19.86
2014-08-30T00:30:38.301Z,19.96
2014-08-30T00:31:42.991Z,19.89
2014-08-30T00:32:47.665Z,19.94
2014-08-30T00:33:52.354Z,19.64
2014-08-30T00:34:57.044Z,20.01
2014-08-30T00:36:01.718Z,20.12
2014-08-30T00:37:06.408Z,20.1
2014-08-30T00:38:11.379Z,19.94
2014-08-30T00:39:16.067Z,19.89
2014-08-30T00:40:21.055Z,20.04
2014-08-30T00:41:25.743Z,19.76
2014-08-30T00:42:30.418Z,19.8
2014-08-30T00:43:35.404Z,19.97
2014-08-30T00:44:40.094Z,20.05
2014-08-30T00:45:44.768Z,19.9
2014-08-30T00:46:49.457Z,19.99
2014-08-30T00:47:54.131Z,19.99
2014-08-30T00:48:59.118Z,19.92
2014-08-30T00:50:03.807Z,19.95
2014-08-30T00:51:08.482Z,19.9
2014-08-30T00:52:13.170Z,19.92
2014-08-30T00:53:17.860Z,19.86
2014-08-30T00:54:22.832Z,19.95
2014-08-30T00:55:27.520Z,19.96
2014-08-30T00:56:32.508Z,19.96
2014-08-30T00:57:37.181Z,19.97
2014-08-30T00:58:41.871Z,20.07
2014-08-30T00:59:46.560Z,19.9
2014-08-30T01:00:51.234Z,19.92
2014-08-30T01:01:55.924Z,19.92
2014-08-30T01:03:00.613Z,20.1
2014-08-30T01:04:05.287Z,20.06
2014-08-30T01:05:09.977Z,19.97
2014-08-30T01:06:14.277Z,19.92
2014-08-30T01:07:18.949Z,20.06
2014-08-30T01:08:23.640Z,20
2014-08-30T01:09:28.314Z,19.87
2014-08-30T01:10:33.002Z,19.85
2014-08-30T01:11:37.676Z,19.9
2014-08-30T01:12:42.367Z,19.88
2014-08-30T01:13:47.353Z,19.91
2014-08-30T01:14:52.043Z,19.9
2014-08-30T01:15:56.716Z,19.99
2014-08-30T01:17:01.406Z,20.01
2014-08-30T01:18:06.080Z,20.04
2014-08-30T01:19:10.769Z,20.11
2014-08-30T01:20:15.756Z,19.97
2014-08-30T01:21:20.445Z,20.04
2014-08-30T01:22:25.120Z,20.05
2014-08-30T01:23:29.809Z,20.08
2014-08-30T01:24:34.499Z,20.22
2014-08-30T01:25:39.173Z,20.09
2014-08-30T01:26:43.862Z,19.94
2014-08-30T01:27:48.160Z,19.9
2014-08-30T01:28:52.850Z,19.85
2014-08-30T01:29:57.525Z,20.05
2014-08-30T01:31:02.214Z,19.8
2014-08-30T01:32:06.904Z,19.88
2014-08-30T01:33:11.593Z,19.84
2014-08-30T01:34:16.268Z,19.84
2014-08-30T01:35:20.958Z,20.01
2014-08-30T01:36:25.630Z,20.09
2014-08-30T01:37:30.321Z,19.92
2014-08-30T01:38:34.323Z,19.85
2014-08-30T01:39:38.997Z,19.76
2014-08-30T01:40:43.982Z,19.8
2014-08-30T01:41:48.970Z,19.76
2014-08-30T01:42:53.659Z,19.87
2014-08-30T01:43:58.349Z,19.89
2014-08-30T01:45:03.319Z,19.84
2014-08-30T01:46:08.009Z,19.9
2014-08-30T01:47:12.011Z,19.79
2014-08-30T01:48:16.700Z,19.81
2014-08-30T01:49:21.405Z,19.88
2014-08-30T01:50:26.376Z,19.76
2014-08-30T01:51:31.066Z,19.64
2014-08-30T01:52:35.755Z,19.72
2014-08-30T01:53:40.446Z,19.76
2014-08-30T01:54:45.119Z,19.8
2014-08-30T01:55:49.809Z,19.76
2014-08-30T01:56:54.499Z,19.79
2014-08-30T01:57:59.172Z,19.85
2014-08-30T01:59:03.862Z,19.75
2014-08-30T02:00:08.848Z,19.66
2014-08-30T02:01:13.522Z,19.67
2014-08-30T02:02:18.212Z,19.79
2014-08-30T02:03:22.901Z,19.84
2014-08-30T02:04:27.889Z,19.76
2014-08-30T02:05:32.561Z,19.66
2014-08-30T02:06:37.252Z,19.73
2014-08-30T02:07:41.941Z,19.78
2014-08-30T02:08:46.614Z,19.73
2014-08-30T02:09:51.305Z,19.86
2014-08-30T02:10:55.993Z,20
2014-08-30T02:12:00.667Z,19.79
2014-08-30T02:13:05.358Z,19.76
2014-08-30T02:14:10.344Z,19.78
2014-08-30T02:15:15.018Z,19.73
2014-08-30T02:16:19.707Z,19.53
2014-08-30T02:17:24.694Z,19.44
2014-08-30T02:18:29.383Z,19.59
2014-08-30T02:19:34.057Z,19.81
2014-08-30T02:20:38.747Z,19.77
2014-08-30T02:21:43.436Z,19.63
2014-08-30T02:22:48.127Z,19.62
2014-08-30T02:23:52.800Z,19.49
2014-08-30T02:24:57.490Z,19.52
2014-08-30T02:26:02.180Z,19.5
2014-08-30T02:27:06.852Z,19.38
2014-08-30T02:28:11.840Z,19.67
2014-08-30T02:29:16.529Z,19.65
2014-08-30T02:30:21.219Z,19.66
2014-08-30T02:31:26.205Z,19.67
2014-08-30T02:32:30.879Z,19.72
2014-08-30T02:33:35.569Z,19.6
2014-08-30T02:34:40.259Z,19.79
2014-08-30T02:35:44.949Z,19.7
2014-08-30T02:36:49.621Z,19.74
2014-08-30T02:37:54.312Z,19.69
2014-08-30T02:38:58.611Z,19.55
2014-08-30T02:40:03.299Z,19.57
2014-08-30T02:41:07.990Z,19.78
2014-08-30T02:42:12.678Z,19.75
2014-08-30T02:43:17.681Z,19.66
2014-08-30T02:44:22.386Z,19.61
2014-08-30T02:45:27.060Z,19.7
2014-08-30T02:46:32.047Z,19.79
2014-08-30T02:47:36.736Z,19.62
2014-08-30T02:48:41.411Z,19.61
2014-08-30T02:49:46.100Z,19.62
2014-08-30T02:50:50.790Z,19.66
2014-08-30T02:51:55.479Z,19.75
2014-08-30T02:53:00.169Z,19.68
2014-08-30T02:54:05.154Z,19.65
2014-08-30T02:55:09.844Z,19.76
2014-08-30T02:56:14.519Z,19.77
2014-08-30T02:57:19.504Z,19.65
2014-08-30T02:58:24.195Z,19.75
2014-08-30T02:59:28.883Z,19.73
2014-08-30T03:00:33.558Z,19.71
2014-08-30T03:01:38.544Z,19.56
2014-08-30T03:02:43.234Z,19.62
2014-08-30T03:03:47.923Z,19.73
2014-08-30T03:04:52.614Z,19.58
2014-08-30T03:05:57.287Z,19.43
2014-08-30T03:07:01.976Z,19.6
2014-08-30T03:08:06.963Z,19.45
2014-08-30T03:09:11.652Z,19.48
2014-08-30T03:10:16.343Z,19.66
2014-08-30T03:11:21.032Z,19.77
2014-08-30T03:12:25.706Z,19.56
2014-08-30T03:13:30.692Z,19.38
2014-08-30T03:14:35.382Z,19.34
2014-08-30T03:15:40.071Z,19.34
2014-08-30T03:16:44.745Z,19.32
2014-08-30T03:17:49.732Z,19.32
2014-08-30T03:18:54.421Z,19.32
2014-08-30T03:19:59.111Z,19.2
2014-08-30T03:21:03.800Z,19.23
2014-08-30T03:22:08.475Z,19.23
2014-08-30T03:23:13.460Z,19.4
2014-08-30T03:24:18.151Z,19.12
2014-08-30T03:25:22.839Z,19.26
2014-08-30T03:26:27.827Z,19.37
2014-08-30T03:27:32.515Z,19.23
2014-08-30T03:28:37.503Z,19.38
2014-08-30T03:29:42.177Z,19.53
2014-08-30T03:30:47.163Z,19.4
2014-08-30T03:31:52.149Z,19.47
2014-08-30T03:32:56.839Z,19.36
2014-08-30T03:34:01.528Z,19.33
2014-08-30T03:35:06.530Z,19.2
2014-08-30T03:36:11.517Z,19.23
2014-08-30T03:37:16.504Z,19.23
2014-08-30T03:38:21.194Z,19.35
2014-08-30T03:39:25.866Z,19.39
2014-08-30T03:40:30.557Z,19.4
2014-08-30T03:41:35.542Z,19.44
2014-08-30T03:42:40.233Z,19.36
2014-08-30T03:43:44.922Z,19.37
2014-08-30T03:44:49.595Z,19.48
2014-08-30T03:45:54.583Z,19.45
2014-08-30T03:46:59.569Z,19.32
2014-08-30T03:48:04.258Z,19.42
2014-08-30T03:49:08.948Z,19.17
2014-08-30T03:50:13.637Z,18.98
2014-08-30T03:51:18.624Z,18.9
2014-08-30T03:52:23.298Z,18.85
2014-08-30T03:53:27.987Z,19.05
2014-08-30T03:54:32.678Z,18.98
2014-08-30T03:55:37.366Z,18.9
2014-08-30T03:56:42.057Z,18.9
2014-08-30T03:57:47.043Z,18.76
2014-08-30T03:58:51.717Z,18.74
2014-08-30T03:59:55.719Z,18.72
2014-08-30T04:01:00.424Z,18.82
2014-08-30T04:02:05.114Z,18.83
2014-08-30T04:03:09.803Z,18.96
2014-08-30T04:04:14.477Z,18.87
2014-08-30T04:05:19.166Z,18.92
2014-08-30T04:06:24.154Z,18.84
2014-08-30T04:07:28.842Z,18.83
2014-08-30T04:08:33.533Z,18.84
2014-08-30T04:09:38.222Z,19.2
2014-08-30T04:10:42.895Z,19.24
2014-08-30T04:11:47.914Z,19.32
2014-08-30T04:12:52.588Z,19.32
2014-08-30T04:13:57.574Z,19.31
2014-08-30T04:15:02.264Z,19.35
2014-08-30T04:16:06.937Z,19.25
2014-08-30T04:17:11.627Z,19.08
2014-08-30T04:18:16.301Z,19.04
2014-08-30T04:19:20.990Z,18.92
2014-08-30T04:20:25.680Z,19.07
2014-08-30T04:21:30.354Z,18.94
2014-08-30T04:22:34.356Z,19.11
2014-08-30T04:23:39.343Z,18.8
2014-08-30T04:24:44.017Z,18.96
2014-08-30T04:25:48.705Z,19.01
2014-08-30T04:26:53.693Z,18.9
2014-08-30T04:27:58.664Z,19.06
2014-08-30T04:29:03.650Z,19.14
2014-08-30T04:30:08.339Z,19.24
2014-08-30T04:31:13.013Z,19.19
2014-08-30T04:32:17.703Z,19.08
2014-08-30T04:33:22.377Z,19.15
2014-08-30T04:34:27.066Z,19.16
2014-08-30T04:35:31.756Z,18.86
2014-08-30T04:36:36.430Z,18.58
2014-08-30T04:37:41.417Z,18.51
2014-08-30T04:38:46.402Z,18.43
2014-08-30T04:39:51.093Z,18.4
2014-08-30T04:40:55.782Z,18.37
2014-08-30T04:42:00.455Z,18.28
2014-08-30T04:43:05.146Z,18.3
2014-08-30T04:44:09.820Z,18.28
2014-08-30T04:45:14.509Z,18.3
2014-08-30T04:46:19.495Z,18.3
2014-08-30T04:47:24.169Z,18.58
2014-08-30T04:48:28.859Z,18.8
2014-08-30T04:49:33.533Z,18.85
2014-08-30T04:50:38.222Z,18.73
2014-08-30T04:51:42.897Z,18.8
2014-08-30T04:52:47.586Z,18.9
2014-08-30T04:53:52.259Z,18.92
2014-08-30T04:54:57.247Z,18.97
2014-08-30T04:56:01.935Z,18.84
2014-08-30T04:57:06.609Z,18.86
2014-08-30T04:58:11.300Z,18.75
2014-08-30T04:59:15.974Z,18.82
2014-08-30T05:00:20.663Z,18.52
2014-08-30T05:01:25.634Z,18.29
2014-08-30T05:02:30.323Z,18.42
2014-08-30T05:03:35.013Z,18.26
2014-08-30T05:04:39.687Z,18.34
2014-08-30T05:05:44.376Z,18.59
2014-08-30T05:06:49.535Z,18.76
2014-08-30T05:07:54.505Z,18.65
2014-08-30T05:08:59.196Z,18.74
2014-08-30T05:10:03.869Z,18.42
2014-08-30T05:11:08.559Z,18.38
2014-08-30T05:12:13.233Z,18.28
2014-08-30T05:13:17.922Z,18.34
2014-08-30T05:14:22.596Z,18.66
2014-08-30T05:15:27.286Z,18.98
2014-08-30T05:16:31.975Z,19.1
2014-08-30T05:17:36.649Z,19.2
2014-08-30T05:18:41.636Z,19.1
2014-08-30T05:19:46.606Z,19.19
2014-08-30T05:20:51.296Z,19.12
2014-08-30T05:21:56.282Z,18.94
2014-08-30T05:23:00.957Z,18.93
2014-08-30T05:24:05.646Z,19.56
2014-08-30T05:25:10.319Z,20.71
2014-08-30T05:26:15.010Z,22
2014-08-30T05:27:19.699Z,22.79
2014-08-30T05:28:24.372Z,23.73
2014-08-30T05:29:29.063Z,24.14
2014-08-30T05:30:33.752Z,24.64
2014-08-30T05:31:38.739Z,25.9
2014-08-30T05:32:43.413Z,26.54
2014-08-30T05:33:48.103Z,27.26
2014-08-30T05:34:52.792Z,26.38
2014-08-30T05:35:57.482Z,26.49
2014-08-30T05:37:02.171Z,26.7
2014-08-30T05:38:06.861Z,26.99
2014-08-30T05:39:11.550Z,27.1
2014-08-30T05:40:16.256Z,27.6
2014-08-30T05:41:20.258Z,28.36
2014-08-30T05:42:24.946Z,29.04
2014-08-30T05:43:29.637Z,29.64
2014-08-30T05:44:33.639Z,29.94
2014-08-30T05:45:38.327Z,30.15
2014-08-30T05:46:43.315Z,30.44
2014-08-30T05:47:47.332Z,30.84
2014-08-30T05:48:52.022Z,30.99
2014-08-30T05:49:56.711Z,31.42
2014-08-30T05:51:01.401Z,31.98
2014-08-30T05:52:05.403Z,32.08
2014-08-30T05:53:10.405Z,31.74
2014-08-30T05:54:15.392Z,32.19
2014-08-30T05:55:20.081Z,32.51
2014-08-30T05:56:24.787Z,32.79
2014-08-30T05:57:29.475Z,32.97
2014-08-30T05:58:34.166Z,33.1
2014-08-30T05:59:38.870Z,33.56
2014-08-30T06:00:43.559Z,33.72
2014-08-30T06:01:48.265Z,34.02
2014-08-30T06:02:52.955Z,34.39
2014-08-30T06:03:57.644Z,34.89
2014-08-30T06:05:02.350Z,34.81
2014-08-30T06:06:07.040Z,35.16
2014-08-30T06:07:11.729Z,35.2
2014-08-30T06:08:16.435Z,34.85
2014-08-30T06:09:21.123Z,35.13
2014-08-30T06:10:25.828Z,35.58
2014-08-30T06:11:30.830Z,35.21
2014-08-30T06:12:35.818Z,35.62
2014-08-30T06:13:40.522Z,36.15
2014-08-30T06:14:45.211Z,36.46
2014-08-30T06:15:50.214Z,36.57
2014-08-30T06:16:54.904Z,36.64
2014-08-30T06:17:59.906Z,36.55
2014-08-30T06:19:04.611Z,36.68
2014-08-30T06:20:09.597Z,36.27
2014-08-30T06:21:14.287Z,36.48
2014-08-30T06:22:18.304Z,37.08
2014-08-30T06:23:22.995Z,37.37
2014-08-30T06:24:27.997Z,37.12
2014-08-30T06:25:32.701Z,38.09
2014-08-30T06:26:37.391Z,38.49
2014-08-30T06:27:42.097Z,38.73
2014-08-30T06:28:46.785Z,39.21
2014-08-30T06:29:51.491Z,38.14
2014-08-30T06:30:56.181Z,37.54
2014-08-30T06:32:00.886Z,37.67
2014-08-30T06:33:05.872Z,38.35
2014-08-30T06:34:10.577Z,38.4
2014-08-30T06:35:15.579Z,38.72
2014-08-30T06:36:20.285Z,39.24
2014-08-30T06:37:24.975Z,39.53
2014-08-30T06:38:29.679Z,39.06
2014-08-30T06:39:34.369Z,38.46
2014-08-30T06:40:39.075Z,39.06
2014-08-30T06:41:43.779Z,39.59
2014-08-30T06:42:48.468Z,39.52
2014-08-30T06:43:53.470Z,39.52
2014-08-30T06:44:58.177Z,39.99
2014-08-30T06:46:02.882Z,38.81
2014-08-30T06:47:07.570Z,38.97
2014-08-30T06:48:12.573Z,39.55
2014-08-30T06:49:17.278Z,39.46
2014-08-30T06:50:21.968Z,39.93
2014-08-30T06:51:26.970Z,40.15
2014-08-30T06:52:31.676Z,40.72
2014-08-30T06:53:36.364Z,40.87
2014-08-30T06:54:41.070Z,40.88
2014-08-30T06:55:46.072Z,41.12
2014-08-30T06:56:50.762Z,41.26
2014-08-30T06:57:55.764Z,40.52
2014-08-30T06:59:00.750Z,39.73
2014-08-30T07:00:05.752Z,37.04
2014-08-30T07:01:10.754Z,34.25
2014-08-30T07:02:15.741Z,32.95
2014-08-30T07:03:20.743Z,31.3
2014-08-30T07:04:25.432Z,30.4
2014-08-30T07:05:30.122Z,29.96
2014-08-30T07:06:34.828Z,29.25
2014-08-30T07:07:39.516Z,28.45
2014-08-30T07:08:44.207Z,28.4
2014-08-30T07:09:48.912Z,28
2014-08-30T07:10:53.897Z,27.61
2014-08-30T07:11:58.588Z,27.32
2014-08-30T07:13:03.276Z,27.08
2014-08-30T07:14:07.967Z,26.61
2014-08-30T07:15:12.656Z,26.76
2014-08-30T07:16:17.643Z,26.42
2014-08-30T07:17:22.332Z,26.3
2014-08-30T07:18:27.022Z,26.14
2014-08-30T07:19:31.711Z,25.47
2014-08-30T07:20:36.401Z,25.6
2014-08-30T07:21:41.090Z,25.89
2014-08-30T07:22:45.781Z,25.44
2014-08-30T07:23:50.469Z,25.53
2014-08-30T07:24:55.159Z,25.4
2014-08-30T07:25:59.849Z,25.3
2014-08-30T07:27:04.522Z,25.44
2014-08-30T07:28:09.213Z,25.42
2014-08-30T07:29:13.901Z,25.26
2014-08-30T07:30:18.592Z,25.46
2014-08-30T07:31:23.296Z,25.3
2014-08-30T07:32:27.971Z,25.26
2014-08-30T07:33:32.660Z,24.98
2014-08-30T07:34:37.647Z,24.93
2014-08-30T07:35:42.353Z,24.96
2014-08-30T07:36:47.339Z,25.16
2014-08-30T07:37:52.028Z,25.17
2014-08-30T07:38:56.734Z,25.43
2014-08-30T07:40:01.719Z,24.92
2014-08-30T07:41:06.409Z,25.06
2014-08-30T07:42:11.098Z,25.02
2014-08-30T07:43:16.085Z,25.08
2014-08-30T07:44:20.774Z,25.14
2014-08-30T07:45:25.449Z,24.73
2014-08-30T07:46:30.451Z,24.85
2014-08-30T07:47:35.437Z,24.88
2014-08-30T07:48:40.127Z,24.81
2014-08-30T07:49:44.816Z,25.05
2014-08-30T07:50:49.507Z,24.95
2014-08-30T07:51:54.195Z,25.01
2014-08-30T07:52:59.183Z,25.14
2014-08-30T07:54:03.871Z,25.2
2014-08-30T07:55:08.562Z,25.02
2014-08-30T07:56:13.251Z,24.72
2014-08-30T07:57:17.941Z,24.43
2014-08-30T07:58:22.669Z,24.06
2014-08-30T07:59:27.398Z,24.42
2014-08-30T08:00:32.423Z,24.6
2014-08-30T08:01:37.448Z,24.88
2014-08-30T08:02:42.168Z,24.64
2014-08-30T08:03:46.871Z,24.97
2014-08-30T08:04:51.575Z,24.59
2014-08-30T08:05:56.278Z,24.58
2014-08-30T08:07:00.982Z,24.81
2014-08-30T08:08:05.679Z,24.95
2014-08-30T08:09:10.655Z,25
2014-08-30T08:10:15.350Z,25.23
2014-08-30T08:11:20.044Z,25.09
2014-08-30T08:12:24.753Z,24.94
2014-08-30T08:13:29.743Z,25.17
2014-08-30T08:14:34.434Z,24.95
2014-08-30T08:15:39.125Z,24.76
2014-08-30T08:16:44.113Z,24.86
2014-08-30T08:17:48.819Z,25.02
2014-08-30T08:18:53.510Z,24.74
2014-08-30T08:19:58.200Z,24.7
2014-08-30T08:21:02.891Z,24.62
2014-08-30T08:22:07.580Z,24.7
2014-08-30T08:23:12.271Z,24.89
2014-08-30T08:24:16.960Z,24.78
2014-08-30T08:25:21.650Z,24.4
2014-08-30T08:26:26.636Z,24.33
2014-08-30T08:27:31.325Z,24.33
2014-08-30T08:28:36.015Z,24.49
2014-08-30T08:29:40.704Z,24.64
2014-08-30T08:30:45.706Z,24.76
2014-08-30T08:31:50.396Z,25.07
2014-08-30T08:32:55.382Z,24.98
2014-08-30T08:34:00.072Z,24.98
2014-08-30T08:35:04.761Z,25.27
2014-08-30T08:36:09.452Z,25.41
2014-08-30T08:37:14.140Z,25.33
2014-08-30T08:38:19.128Z,25.23
2014-08-30T08:39:23.816Z,25.25
2014-08-30T08:40:28.507Z,25.6
2014-08-30T08:41:33.195Z,25.5
2014-08-30T08:42:37.901Z,25.34
2014-08-30T08:43:42.888Z,25.2
2014-08-30T08:44:47.577Z,25.38
2014-08-30T08:45:52.268Z,25.45
2014-08-30T08:46:57.254Z,25.36
2014-08-30T08:48:01.944Z,25.02
2014-08-30T08:49:06.633Z,24.89
2014-08-30T08:50:11.322Z,24.9
2014-08-30T08:51:16.309Z,24.96
2014-08-30T08:52:21.294Z,24.79
2014-08-30T08:53:25.985Z,24.93
2014-08-30T08:54:30.673Z,24.76
2014-08-30T08:55:35.363Z,24.41
2014-08-30T08:56:40.053Z,24.2
2014-08-30T08:57:44.743Z,24.43
2014-08-30T08:58:49.432Z,24.78
2014-08-30T08:59:53.434Z,24.48
2014-08-30T09:00:58.421Z,24.38
2014-08-30T09:02:03.110Z,24.45
2014-08-30T09:03:07.815Z,24.32
2014-08-30T09:04:12.506Z,24.26
2014-08-30T09:05:17.180Z,23.99
2014-08-30T09:06:21.868Z,24.13
2014-08-30T09:07:26.559Z,24.15
2014-08-30T09:08:31.247Z,23.99
2014-08-30T09:09:36.235Z,24.04
2014-08-30T09:10:40.924Z,23.87
2014-08-30T09:11:45.598Z,23.8
2014-08-30T09:12:50.287Z,23.84
2014-08-30T09:13:54.977Z,23.74
2014-08-30T09:14:59.963Z,23.96
2014-08-30T09:16:04.637Z,23.93
2014-08-30T09:17:09.327Z,24.28
2014-08-30T09:18:14.016Z,24.35
2014-08-30T09:19:18.706Z,24.28
2014-08-30T09:20:23.395Z,24.21
2014-08-30T09:21:28.070Z,24.02
2014-08-30T09:22:32.760Z,23.99
2014-08-30T09:23:37.449Z,24.1
2014-08-30T09:24:42.139Z,24.28
2014-08-30T09:25:46.828Z,24.16
2014-08-30T09:26:51.518Z,24.32
2014-08-30T09:27:56.191Z,24.55
2014-08-30T09:29:00.881Z,24.56
2014-08-30T09:30:05.570Z,24.88
2014-08-30T09:31:10.260Z,25.24
2014-08-30T09:32:14.949Z,25.28
2014-08-30T09:33:19.936Z,25.12
2014-08-30T09:34:24.610Z,24.96
2014-08-30T09:35:29.299Z,24.81
2014-08-30T09:36:33.990Z,24.89
2014-08-30T09:37:38.976Z,25.01
2014-08-30T09:38:43.650Z,25.2
2014-08-30T09:39:48.635Z,25.1
2014-08-30T09:40:53.326Z,25.26
2014-08-30T09:41:58.311Z,25.42
2014-08-30T09:43:03.002Z,25.51
2014-08-30T09:44:07.691Z,25.25
2014-08-30T09:45:12.382Z,25.25
2014-08-30T09:46:17.070Z,25.05
2014-08-30T09:47:21.761Z,25.32
2014-08-30T09:48:26.449Z,25.37
2014-08-30T09:49:31.139Z,24.99
2014-08-30T09:50:35.141Z,24.91
2014-08-30T09:51:39.830Z,25.21
2014-08-30T09:52:44.505Z,25.14
2014-08-30T09:53:49.195Z,25.01
2014-08-30T09:54:54.181Z,25.2
2014-08-30T09:55:58.870Z,25.04
2014-08-30T09:57:03.560Z,24.65
2014-08-30T09:58:08.249Z,24.74
2014-08-30T09:59:12.939Z,24.79
2014-08-30T10:00:17.613Z,24.49
2014-08-30T10:01:22.302Z,24.28
2014-08-30T10:02:26.992Z,24.39
2014-08-30T10:03:31.978Z,24.41
2014-08-30T10:04:36.669Z,24.59
2014-08-30T10:05:41.357Z,24.39
2014-08-30T10:06:46.048Z,24.4
2014-08-30T10:07:50.722Z,24.61
2014-08-30T10:08:55.411Z,24.7
2014-08-30T10:10:00.397Z,24.9
2014-08-30T10:11:05.087Z,25.01
2014-08-30T10:12:10.073Z,24.96
2014-08-30T10:13:14.763Z,24.71
2014-08-30T10:14:19.452Z,24.39
2014-08-30T10:15:24.142Z,24.53
2014-08-30T10:16:28.816Z,24.77
2014-08-30T10:17:33.505Z,24.62
2014-08-30T10:18:38.195Z,24.84
2014-08-30T10:19:42.884Z,24.81
2014-08-30T10:20:47.872Z,24.73
2014-08-30T10:21:52.544Z,24.79
2014-08-30T10:22:57.251Z,24.88
2014-08-30T10:24:01.939Z,25.12
2014-08-30T10:25:06.614Z,25.12
2014-08-30T10:26:11.303Z,25.04
2014-08-30T10:27:15.993Z,24.86
2014-08-30T10:28:20.682Z,25.05
2014-08-30T10:29:25.356Z,25.24
2014-08-30T10:30:30.046Z,25.25
2014-08-30T10:31:34.735Z,25.37
2014-08-30T10:32:39.425Z,25.53
2014-08-30T10:33:44.114Z,25.47
2014-08-30T10:34:48.805Z,25.54
2014-08-30T10:35:53.790Z,25.75
2014-08-30T10:36:58.465Z,25.64
2014-08-30T10:38:03.155Z,25.68
2014-08-30T10:39:07.844Z,25.7
2014-08-30T10:40:12.534Z,25.73
2014-08-30T10:41:17.520Z,25.81
2014-08-30T10:42:22.209Z,25.65
2014-08-30T10:43:26.899Z,25.63
2014-08-30T10:44:31.885Z,25.8
2014-08-30T10:45:36.559Z,25.83
2014-08-30T10:46:41.249Z,25.61
2014-08-30T10:47:45.938Z,25.74
2014-08-30T10:48:50.925Z,25.86
2014-08-30T10:49:55.615Z,26.04
2014-08-30T10:51:00.305Z,26.03
2014-08-30T10:52:04.993Z,26.11
2014-08-30T10:53:09.980Z,26.14
2014-08-30T10:54:14.966Z,26.26
2014-08-30T10:55:19.655Z,26.16
2014-08-30T10:56:24.346Z,26.27
2014-08-30T10:57:29.067Z,26.66
2014-08-30T10:58:33.787Z,26.54
2014-08-30T10:59:38.508Z,26.3
2014-08-30T11:00:43.494Z,26.15
2014-08-30T11:01:48.184Z,25.83
2014-08-30T11:02:52.873Z,26.05
2014-08-30T11:03:57.547Z,26.04
2014-08-30T11:05:02.238Z,26.04
2014-08-30T11:06:06.926Z,26.52
2014-08-30T11:07:11.617Z,26.59
2014-08-30T11:08:16.305Z,26.72
2014-08-30T11:09:20.996Z,26.62
2014-08-30T11:10:25.684Z,26.81
2014-08-30T11:11:30.374Z,26.65
2014-08-30T11:12:35.064Z,26.28
2014-08-30T11:13:39.753Z,26.36
2014-08-30T11:14:44.428Z,26.52
2014-08-30T11:15:49.117Z,26.52
2014-08-30T11:16:53.807Z,26.54
2014-08-30T11:17:58.496Z,26.46
2014-08-30T11:19:03.186Z,26.12
2014-08-30T11:20:07.875Z,26.04
2014-08-30T11:21:12.580Z,25.89
2014-08-30T11:22:17.254Z,25.67
2014-08-30T11:23:21.945Z,25.62
2014-08-30T11:24:26.633Z,25.69
2014-08-30T11:25:31.324Z,25.52
2014-08-30T11:26:36.012Z,25.28
2014-08-30T11:27:40.703Z,24.91
2014-08-30T11:28:45.391Z,24.94
2014-08-30T11:29:50.082Z,24.79
2014-08-30T11:30:54.771Z,24.86
2014-08-30T11:31:59.461Z,25.06
2014-08-30T11:33:04.150Z,25.06
2014-08-30T11:34:08.840Z,25.07
2014-08-30T11:35:13.529Z,25.05
2014-08-30T11:36:18.234Z,25
2014-08-30T11:37:22.908Z,25.05
2014-08-30T11:38:27.599Z,25.08
2014-08-30T11:39:32.287Z,24.84
2014-08-30T11:40:36.978Z,24.52
2014-08-30T11:41:41.666Z,24.64
2014-08-30T11:42:46.357Z,24.78
2014-08-30T11:43:51.046Z,24.77
2014-08-30T11:44:55.720Z,24.68
2014-08-30T11:46:00.410Z,24.6
2014-08-30T11:47:05.100Z,24.68
2014-08-30T11:48:09.789Z,24.85
2014-08-30T11:49:14.479Z,25
2014-08-30T11:50:19.168Z,25.18
2014-08-30T11:51:23.857Z,25.25
2014-08-30T11:52:28.532Z,25.5
2014-08-30T11:53:33.517Z,25.46
2014-08-30T11:54:38.208Z,25.67
2014-08-30T11:55:42.896Z,25.69
2014-08-30T11:56:47.587Z,25.83
2014-08-30T11:57:52.276Z,25.69
2014-08-30T11:58:56.966Z,25.65
2014-08-30T12:00:01.655Z,25.81
2014-08-30T12:01:06.642Z,25.98
2014-08-30T12:02:11.331Z,26.15
2014-08-30T12:03:16.021Z,26.09
2014-08-30T12:04:21.008Z,26.22
2014-08-30T12:05:25.698Z,26.25
2014-08-30T12:06:30.683Z,26.44
2014-08-30T12:07:34.685Z,26.44
2014-08-30T12:08:39.375Z,26.34
2014-08-30T12:09:44.064Z,26.41
2014-08-30T12:10:48.754Z,26.47
2014-08-30T12:11:53.443Z,26.49
2014-08-30T12:12:58.133Z,26.31
2014-08-30T12:14:02.823Z,26.3
2014-08-30T12:15:07.512Z,26.19
2014-08-30T12:16:12.202Z,26.2
2014-08-30T12:17:16.876Z,26.08
2014-08-30T12:18:21.581Z,25.99
2014-08-30T12:19:26.255Z,26.16
2014-08-30T12:20:30.944Z,26.16
2014-08-30T12:21:35.635Z,25.98
2014-08-30T12:22:40.637Z,25.92
2014-08-30T12:23:45.325Z,25.8
2014-08-30T12:24:50.015Z,25.76
2014-08-30T12:25:54.705Z,25.87
2014-08-30T12:26:59.394Z,26.12
2014-08-30T12:28:04.084Z,26.16
2014-08-30T12:29:08.757Z,26.28
2014-08-30T12:30:13.463Z,26.58
2014-08-30T12:31:18.184Z,26.49
2014-08-30T12:32:22.874Z,26.59
2014-08-30T12:33:27.563Z,26.51
2014-08-30T12:34:32.254Z,26.6
2014-08-30T12:35:36.942Z,26.78
2014-08-30T12:36:41.633Z,26.71
2014-08-30T12:37:46.321Z,26.74
2014-08-30T12:38:51.012Z,26.89
2014-08-30T12:39:55.700Z,26.98
2014-08-30T12:41:00.391Z,26.95
2014-08-30T12:42:05.080Z,26.74
2014-08-30T12:43:09.770Z,26.75
2014-08-30T12:44:14.459Z,26.88
2014-08-30T12:45:19.445Z,26.78
2014-08-30T12:46:24.135Z,26.76
2014-08-30T12:47:29.121Z,26.68
2014-08-30T12:48:33.811Z,26.86
2014-08-30T12:49:38.500Z,26.9
2014-08-30T12:50:43.190Z,26.71
2014-08-30T12:51:47.864Z,26.72
2014-08-30T12:52:52.851Z,26.49
2014-08-30T12:53:57.555Z,26.55
2014-08-30T12:55:02.246Z,26.49
2014-08-30T12:56:06.935Z,26.51
2014-08-30T12:57:11.625Z,26.69
2014-08-30T12:58:16.611Z,26.72
2014-08-30T12:59:21.301Z,26.82
2014-08-30T13:00:25.990Z,26.58
2014-08-30T13:01:30.680Z,26.6
2014-08-30T13:02:35.666Z,26.52
2014-08-30T13:03:40.355Z,26.5
2014-08-30T13:04:45.342Z,26.31
2014-08-30T13:05:50.031Z,26.14
2014-08-30T13:06:55.019Z,26.03
2014-08-30T13:07:59.707Z,26.03
2014-08-30T13:09:04.398Z,26.05
2014-08-30T13:10:09.086Z,25.94
2014-08-30T13:11:13.777Z,25.69
2014-08-30T13:12:18.466Z,25.77
2014-08-30T13:13:23.156Z,25.79
2014-08-30T13:14:28.158Z,25.92
2014-08-30T13:15:32.847Z,26.16
2014-08-30T13:16:37.537Z,26.02
2014-08-30T13:17:42.226Z,25.69
2014-08-30T13:18:46.916Z,26.06
2014-08-30T13:19:51.605Z,26.03
2014-08-30T13:20:56.295Z,26.1
2014-08-30T13:22:01.282Z,26.44
2014-08-30T13:23:05.986Z,26.32
2014-08-30T13:24:10.677Z,26.3
2014-08-30T13:25:15.382Z,26.44
2014-08-30T13:26:20.070Z,26.71
2014-08-30T13:27:24.761Z,26.66
2014-08-30T13:28:29.746Z,26.49
2014-08-30T13:29:34.734Z,26.71
2014-08-30T13:30:39.423Z,26.61
2014-08-30T13:31:44.113Z,26.54
2014-08-30T13:32:48.803Z,26.47
2014-08-30T13:33:53.492Z,26.29
2014-08-30T13:34:58.479Z,26.38
2014-08-30T13:36:03.464Z,26.51
2014-08-30T13:37:08.155Z,26.49
2014-08-30T13:38:12.859Z,26.32
2014-08-30T13:39:17.548Z,26.3
2014-08-30T13:40:22.239Z,26.25
2014-08-30T13:41:26.943Z,26.46
2014-08-30T13:42:31.634Z,26.6
2014-08-30T13:43:36.620Z,26.55
2014-08-30T13:44:41.309Z,26.54
2014-08-30T13:45:45.999Z,26.27
2014-08-30T13:46:50.688Z,26.27
2014-08-30T13:47:55.378Z,26.39
2014-08-30T13:49:00.067Z,26.64
2014-08-30T13:50:05.054Z,26.45
2014-08-30T13:51:09.743Z,26.12
2014-08-30T13:52:13.745Z,26.02
2014-08-30T13:53:18.436Z,25.91
2014-08-30T13:54:23.140Z,25.98
2014-08-30T13:55:27.830Z,26.04
2014-08-30T13:56:32.519Z,26.12
2014-08-30T13:57:37.209Z,26.09